»·PEaware :: N27RF KBUR-KSAN

N27RF :: KBUR-KSAN

FLIGHT INFORMATION

Flight Status: Arrived
Operator: Privately registered:
United States
More flights under this callsign
Pilot: Andrew C. (32327)
Aircraft: CIRRUS SR-22 TURBO
(S22T)
More flights by this aircraft type
Origin: KBUR Bob Hope-Burbank
United States
Destination: KSAN San Diego Intl-Lindbergh
United States
More flights between these airports :: More routes between these airports
Route: ELMOO9 ELMOO V186 HAILE V66 MZB
File this flight plan on PilotEdge
Remarks: BURP29
Altitude:
(Current/Filed)
9,000ft
Speed:
(Current/Filed)
160kts
Departed: 05-Jan-21 05:59 PM
Arrived: 05-Jan-21 06:47 PM
Distance/Time
Traveled:
106nm/0:48
Distance/Time
To Go:
Arrived

Flight Plot

Page will automatically refresh every two minutes.

Flight plan parsing failed; only flown route is shown


Map Options




Map Legend


Flown Route
Filed Route
Departure Airport
Arrival Airport
Navaid (VOR, NDB)
Fix

Horizontal Profiles

Position Reports

Time Latitude Longitude Heading Altitude Ground
Speed
05-Jan-21 17:43 34.200210 -118.358863 280 723ft 0kts
05-Jan-21 17:44 34.200210 -118.358863 280 723ft 0kts
05-Jan-21 17:45 34.200210 -118.358863 280 723ft 0kts
05-Jan-21 17:46 34.200210 -118.358863 280 723ft 0kts
05-Jan-21 17:47 34.200210 -118.358863 280 723ft 0kts
05-Jan-21 17:48 34.200210 -118.358863 280 723ft 0kts
05-Jan-21 17:49 34.200210 -118.358863 280 723ft 0kts
05-Jan-21 17:50 34.200210 -118.358863 280 723ft 0kts
05-Jan-21 17:51 34.200210 -118.358863 280 723ft 0kts
05-Jan-21 17:52 34.200210 -118.358863 280 723ft 0kts
05-Jan-21 17:53 34.200210 -118.358863 280 723ft 0kts
05-Jan-21 17:54 34.200514 -118.359215 332 725ft 10kts
05-Jan-21 17:55 34.202748 -118.358973 346 732ft 16kts
05-Jan-21 17:56 34.207888 -118.360390 348 755ft 20kts
05-Jan-21 17:57 34.211509 -118.361198 23 766ft 0kts
05-Jan-21 17:57 34.211897 -118.360903 60 767ft 10kts
05-Jan-21 17:59 34.191788 -118.354506 151 1314ft 97kts
05-Jan-21 17:59 34.178706 -118.333739 122 2283ft 95kts
05-Jan-21 18:01 34.163914 -118.299473 107 3497ft 102kts
05-Jan-21 18:01 34.155241 -118.270622 108 4030ft 128kts
05-Jan-21 18:02 34.140535 -118.221554 108 4005ft 169kts
05-Jan-21 18:03 34.124110 -118.166715 108 4081ft 170kts
05-Jan-21 18:04 34.111173 -118.123492 106 5599ft 128kts
05-Jan-21 18:05 34.098807 -118.082143 107 6663ft 134kts
05-Jan-21 18:06 34.085652 -118.039210 107 7749ft 139kts
05-Jan-21 18:07 34.072055 -117.995011 107 8837ft 143kts
05-Jan-21 18:08 34.056072 -117.943079 108 9002ft 184kts
05-Jan-21 18:09 34.037712 -117.883568 108 8992ft 191kts
05-Jan-21 18:10 34.019076 -117.823273 108 8992ft 192kts
05-Jan-21 18:11 34.000416 -117.762977 108 8991ft 192kts
05-Jan-21 18:12 33.979632 -117.703548 111 8992ft 192kts
05-Jan-21 18:13 33.958698 -117.644119 111 8992ft 192kts
05-Jan-21 18:14 33.937363 -117.583672 111 8992ft 192kts
05-Jan-21 18:15 33.913095 -117.525522 143 8983ft 194kts
05-Jan-21 18:16 33.868627 -117.488182 144 8990ft 194kts
05-Jan-21 18:17 33.824155 -117.450921 144 8990ft 194kts
05-Jan-21 18:18 33.779738 -117.413740 144 8990ft 194kts
05-Jan-21 18:19 33.735295 -117.376580 144 8991ft 194kts
05-Jan-21 18:20 33.690876 -117.339462 145 8989ft 194kts
05-Jan-21 18:21 33.646337 -117.302353 145 8989ft 194kts
05-Jan-21 18:22 33.601919 -117.265368 145 8990ft 194kts
05-Jan-21 18:23 33.557540 -117.228461 145 8996ft 194kts
05-Jan-21 18:24 33.513058 -117.191514 145 9004ft 194kts
05-Jan-21 18:25 33.466829 -117.159106 170 9012ft 193kts
05-Jan-21 18:26 33.413912 -117.147974 171 8999ft 194kts
05-Jan-21 18:27 33.360666 -117.136695 171 8999ft 193kts
05-Jan-21 18:28 33.307619 -117.125460 171 8981ft 194kts
05-Jan-21 18:29 33.254511 -117.114224 171 8981ft 193kts
05-Jan-21 18:30 33.201651 -117.103063 171 8981ft 193kts
05-Jan-21 18:31 33.148627 -117.091887 171 8980ft 193kts
05-Jan-21 18:32 33.095682 -117.080727 171 8980ft 193kts
05-Jan-21 18:33 33.043784 -117.065304 151 8981ft 194kts
05-Jan-21 18:34 32.996540 -117.033745 151 8977ft 195kts
05-Jan-21 18:35 32.947567 -117.001089 151 8278ft 208kts
05-Jan-21 18:36 32.898257 -116.968495 151 7074ft 197kts
05-Jan-21 18:37 32.850788 -116.937448 151 5870ft 194kts
05-Jan-21 18:38 32.803824 -116.907303 161 4964ft 179kts
05-Jan-21 18:39 32.754216 -116.915386 191 3945ft 186kts
05-Jan-21 18:40 32.707409 -116.925363 191 3771ft 157kts
05-Jan-21 18:41 32.680425 -116.961104 251 3786ft 168kts
05-Jan-21 18:42 32.690651 -117.014008 288 3777ft 168kts
05-Jan-21 18:43 32.702667 -117.068666 287 3212ft 178kts
05-Jan-21 18:44 32.717355 -117.123442 286 1439ft 154kts
05-Jan-21 18:45 32.727315 -117.164099 288 426ft 90kts
05-Jan-21 18:46 32.732944 -117.187184 282 16ft 19kts

Navigation Log

Ident Type
Flight plan parsing failed, navigation log unavailable